sensor_id;sensor_type;location;lat;lon;timestamp;temperature;humidity
37786;DHT22;23625;48.784;9.336;2023-12-14T00:01:59;5.80;99.90
37786;DHT22;23625;48.784;9.336;2023-12-14T00:04:25;5.70;99.90
37786;DHT22;23625;48.784;9.336;2023-12-14T00:06:50;5.70;99.90
37786;DHT22;23625;48.784;9.336;2023-12-14T00:09:16;5.70;99.90
37786;DHT22;23625;48.784;9.336;2023-12-14T00:11:41;5.70;99.90
37786;DHT22;23625;48.784;9.336;2023-12-14T00:14:07;5.80;99.90
37786;DHT22;23625;48.784;9.336;2023-12-14T00:16:32;5.80;99.90
37786;DHT22;23625;48.784;9.336;2023-12-14T00:18:58;5.80;99.90
37786;DHT22;23625;48.784;9.336;2023-12-14T00:21:24;5.80;99.90
37786;DHT22;23625;48.784;9.336;2023-12-14T00:23:49;5.70;99.90
37786;DHT22;23625;48.784;9.336;2023-12-14T00:26:15;5.70;99.90
37786;DHT22;23625;48.784;9.336;2023-12-14T00:28:42;5.80;99.90
37786;DHT22;23625;48.784;9.336;2023-12-14T00:31:08;5.70;99.90
37786;DHT22;23625;48.784;9.336;2023-12-14T00:33:33;5.70;99.90
37786;DHT22;23625;48.784;9.336;2023-12-14T00:35:59;5.70;99.90
37786;DHT22;23625;48.784;9.336;2023-12-14T00:38:25;5.70;99.90
37786;DHT22;23625;48.784;9.336;2023-12-14T00:40:50;5.70;99.90
37786;DHT22;23625;48.784;9.336;2023-12-14T00:43:16;5.80;99.90
37786;DHT22;23625;48.784;9.336;2023-12-14T00:45:41;5.70;99.90
37786;DHT22;23625;48.784;9.336;2023-12-14T00:48:07;5.70;99.90
37786;DHT22;23625;48.784;9.336;2023-12-14T00:50:33;5.70;99.90
37786;DHT22;23625;48.784;9.336;2023-12-14T00:52:58;5.80;99.90
37786;DHT22;23625;48.784;9.336;2023-12-14T00:55:24;5.80;99.90
37786;DHT22;23625;48.784;9.336;2023-12-14T00:57:49;5.70;99.90
37786;DHT22;23625;48.784;9.336;2023-12-14T01:00:15;5.70;99.90
37786;DHT22;23625;48.784;9.336;2023-12-14T01:02:41;5.70;99.90
37786;DHT22;23625;48.784;9.336;2023-12-14T01:05:07;5.70;99.90
37786;DHT22;23625;48.784;9.336;2023-12-14T01:07:32;5.70;99.90
37786;DHT22;23625;48.784;9.336;2023-12-14T01:09:58;5.70;99.90
37786;DHT22;23625;48.784;9.336;2023-12-14T01:12:23;5.70;99.90
37786;DHT22;23625;48.784;9.336;2023-12-14T01:14:49;5.70;99.90
37786;DHT22;23625;48.784;9.336;2023-12-14T01:17:15;5.70;99.90
37786;DHT22;23625;48.784;9.336;2023-12-14T01:19:40;5.70;99.90
37786;DHT22;23625;48.784;9.336;2023-12-14T01:22:07;5.70;99.90
37786;DHT22;23625;48.784;9.336;2023-12-14T01:24:32;5.70;99.90
37786;DHT22;23625;48.784;9.336;2023-12-14T01:26:58;5.70;99.90
37786;DHT22;23625;48.784;9.336;2023-12-14T01:29:23;5.80;99.90
37786;DHT22;23625;48.784;9.336;2023-12-14T01:31:49;5.80;99.90
37786;DHT22;23625;48.784;9.336;2023-12-14T01:34:15;5.80;99.90
37786;DHT22;23625;48.784;9.336;2023-12-14T01:36:41;5.80;99.90
37786;DHT22;23625;48.784;9.336;2023-12-14T01:39:07;5.80;99.90
37786;DHT22;23625;48.784;9.336;2023-12-14T01:41:32;5.80;99.90
37786;DHT22;23625;48.784;9.336;2023-12-14T01:43:58;5.80;99.90
37786;DHT22;23625;48.784;9.336;2023-12-14T01:46:24;5.80;99.90
37786;DHT22;23625;48.784;9.336;2023-12-14T01:48:49;5.90;99.90
37786;DHT22;23625;48.784;9.336;2023-12-14T01:51:17;5.90;99.90
37786;DHT22;23625;48.784;9.336;2023-12-14T01:53:42;5.90;99.90
37786;DHT22;23625;48.784;9.336;2023-12-14T01:56:08;5.90;99.90
37786;DHT22;23625;48.784;9.336;2023-12-14T01:58:34;5.90;99.90
37786;DHT22;23625;48.784;9.336;2023-12-14T02:01:08;5.90;99.90
37786;DHT22;23625;48.784;9.336;2023-12-14T02:03:36;5.90;99.90
37786;DHT22;23625;48.784;9.336;2023-12-14T02:06:08;5.90;99.90
37786;DHT22;23625;48.784;9.336;2023-12-14T02:08:34;5.90;99.90
37786;DHT22;23625;48.784;9.336;2023-12-14T02:11:00;6.00;99.90
37786;DHT22;23625;48.784;9.336;2023-12-14T02:13:25;6.00;99.90
37786;DHT22;23625;48.784;9.336;2023-12-14T02:15:52;6.00;99.90
37786;DHT22;23625;48.784;9.336;2023-12-14T02:18:19;6.00;99.90
37786;DHT22;23625;48.784;9.336;2023-12-14T02:20:44;6.00;99.90
37786;DHT22;23625;48.784;9.336;2023-12-14T02:23:10;6.00;99.90
37786;DHT22;23625;48.784;9.336;2023-12-14T02:25:35;5.90;99.90
37786;DHT22;23625;48.784;9.336;2023-12-14T02:28:01;6.00;99.90
37786;DHT22;23625;48.784;9.336;2023-12-14T02:30:27;5.90;99.90
37786;DHT22;23625;48.784;9.336;2023-12-14T02:32:52;5.90;99.90
37786;DHT22;23625;48.784;9.336;2023-12-14T02:35:18;5.90;99.90
37786;DHT22;23625;48.784;9.336;2023-12-14T02:37:44;5.90;99.90
37786;DHT22;23625;48.784;9.336;2023-12-14T02:40:10;5.90;99.90
37786;DHT22;23625;48.784;9.336;2023-12-14T02:42:36;6.00;99.90
37786;DHT22;23625;48.784;9.336;2023-12-14T02:45:03;6.00;99.90
37786;DHT22;23625;48.784;9.336;2023-12-14T02:47:29;6.00;99.90
37786;DHT22;23625;48.784;9.336;2023-12-14T02:49:55;6.00;99.90
37786;DHT22;23625;48.784;9.336;2023-12-14T02:52:21;6.10;99.90
37786;DHT22;23625;48.784;9.336;2023-12-14T02:54:46;6.10;99.90
37786;DHT22;23625;48.784;9.336;2023-12-14T02:57:12;6.00;99.90
37786;DHT22;23625;48.784;9.336;2023-12-14T02:59:37;6.00;99.90
37786;DHT22;23625;48.784;9.336;2023-12-14T03:02:03;6.00;99.90
37786;DHT22;23625;48.784;9.336;2023-12-14T03:04:28;6.00;99.90
37786;DHT22;23625;48.784;9.336;2023-12-14T03:06:54;6.00;99.90
37786;DHT22;23625;48.784;9.336;2023-12-14T03:09:21;6.00;99.90
37786;DHT22;23625;48.784;9.336;2023-12-14T03:11:46;6.00;99.90
37786;DHT22;23625;48.784;9.336;2023-12-14T03:14:12;6.10;99.90
37786;DHT22;23625;48.784;9.336;2023-12-14T03:16:38;6.00;99.90
37786;DHT22;23625;48.784;9.336;2023-12-14T03:19:03;6.00;99.90
37786;DHT22;23625;48.784;9.336;2023-12-14T03:21:29;6.00;99.90
37786;DHT22;23625;48.784;9.336;2023-12-14T03:23:55;6.00;99.90
37786;DHT22;23625;48.784;9.336;2023-12-14T03:26:20;6.00;99.90
37786;DHT22;23625;48.784;9.336;2023-12-14T03:28:46;6.00;99.90
37786;DHT22;23625;48.784;9.336;2023-12-14T03:31:12;6.00;99.90
37786;DHT22;23625;48.784;9.336;2023-12-14T03:33:42;6.00;99.90
37786;DHT22;23625;48.784;9.336;2023-12-14T03:36:08;6.00;99.90
37786;DHT22;23625;48.784;9.336;2023-12-14T03:38:33;6.00;99.90
37786;DHT22;23625;48.784;9.336;2023-12-14T03:40:59;6.00;99.90
37786;DHT22;23625;48.784;9.336;2023-12-14T03:43:25;6.00;99.90
37786;DHT22;23625;48.784;9.336;2023-12-14T03:45:50;6.00;99.90
37786;DHT22;23625;48.784;9.336;2023-12-14T03:48:16;6.00;99.90
37786;DHT22;23625;48.784;9.336;2023-12-14T03:50:42;6.10;99.90
37786;DHT22;23625;48.784;9.336;2023-12-14T03:53:07;6.10;99.90
37786;DHT22;23625;48.784;9.336;2023-12-14T03:55:33;6.10;99.90
37786;DHT22;23625;48.784;9.336;2023-12-14T03:57:59;6.10;99.90
37786;DHT22;23625;48.784;9.336;2023-12-14T04:00:24;6.10;99.90
37786;DHT22;23625;48.784;9.336;2023-12-14T04:02:50;6.10;99.90
37786;DHT22;23625;48.784;9.336;2023-12-14T04:05:16;6.00;99.90
37786;DHT22;23625;48.784;9.336;2023-12-14T04:07:41;6.10;99.90
37786;DHT22;23625;48.784;9.336;2023-12-14T04:10:11;6.10;99.90
37786;DHT22;23625;48.784;9.336;2023-12-14T04:12:37;6.10;99.90
37786;DHT22;23625;48.784;9.336;2023-12-14T04:15:04;6.10;99.90
37786;DHT22;23625;48.784;9.336;2023-12-14T04:17:33;6.10;99.90
37786;DHT22;23625;48.784;9.336;2023-12-14T04:19:59;6.10;99.90
37786;DHT22;23625;48.784;9.336;2023-12-14T04:22:26;6.10;99.90
37786;DHT22;23625;48.784;9.336;2023-12-14T04:24:51;6.00;99.90
37786;DHT22;23625;48.784;9.336;2023-12-14T04:27:17;6.00;99.90
37786;DHT22;23625;48.784;9.336;2023-12-14T04:29:43;6.00;99.90
37786;DHT22;23625;48.784;9.336;2023-12-14T04:32:08;5.70;99.90
37786;DHT22;23625;48.784;9.336;2023-12-14T04:34:34;6.00;99.90
37786;DHT22;23625;48.784;9.336;2023-12-14T04:37:00;6.00;99.90
37786;DHT22;23625;48.784;9.336;2023-12-14T04:39:25;6.00;99.90
37786;DHT22;23625;48.784;9.336;2023-12-14T04:41:51;6.00;99.90
37786;DHT22;23625;48.784;9.336;2023-12-14T04:44:18;6.00;99.90
37786;DHT22;23625;48.784;9.336;2023-12-14T04:46:44;6.00;99.90
37786;DHT22;23625;48.784;9.336;2023-12-14T04:49:09;6.00;99.90
37786;DHT22;23625;48.784;9.336;2023-12-14T04:51:35;6.00;99.90
37786;DHT22;23625;48.784;9.336;2023-12-14T04:54:01;6.00;99.90
37786;DHT22;23625;48.784;9.336;2023-12-14T04:56:26;6.10;99.90
37786;DHT22;23625;48.784;9.336;2023-12-14T04:58:52;6.10;99.90
37786;DHT22;23625;48.784;9.336;2023-12-14T05:01:17;6.00;99.90
37786;DHT22;23625;48.784;9.336;2023-12-14T05:03:43;6.00;99.90
37786;DHT22;23625;48.784;9.336;2023-12-14T05:06:09;6.10;99.90
37786;DHT22;23625;48.784;9.336;2023-12-14T05:08:34;6.10;99.90
37786;DHT22;23625;48.784;9.336;2023-12-14T05:11:01;6.00;99.90
37786;DHT22;23625;48.784;9.336;2023-12-14T05:13:26;6.00;99.90
37786;DHT22;23625;48.784;9.336;2023-12-14T05:15:52;6.00;99.90
37786;DHT22;23625;48.784;9.336;2023-12-14T05:18:18;6.10;99.90
37786;DHT22;23625;48.784;9.336;2023-12-14T05:20:43;6.10;99.90
37786;DHT22;23625;48.784;9.336;2023-12-14T05:23:11;6.10;99.90
37786;DHT22;23625;48.784;9.336;2023-12-14T05:25:37;6.10;99.90
37786;DHT22;23625;48.784;9.336;2023-12-14T05:28:02;6.10;99.90
37786;DHT22;23625;48.784;9.336;2023-12-14T05:30:29;6.10;99.90
37786;DHT22;23625;48.784;9.336;2023-12-14T05:32:54;6.10;99.90
37786;DHT22;23625;48.784;9.336;2023-12-14T05:35:20;6.00;99.90
37786;DHT22;23625;48.784;9.336;2023-12-14T05:37:45;6.10;99.90
37786;DHT22;23625;48.784;9.336;2023-12-14T05:40:11;6.10;99.90
37786;DHT22;23625;48.784;9.336;2023-12-14T05:42:37;6.10;99.90
37786;DHT22;23625;48.784;9.336;2023-12-14T05:45:04;6.10;99.90
37786;DHT22;23625;48.784;9.336;2023-12-14T05:47:30;6.10;99.90
37786;DHT22;23625;48.784;9.336;2023-12-14T05:50:00;6.10;99.90
37786;DHT22;23625;48.784;9.336;2023-12-14T05:52:26;6.10;99.90
37786;DHT22;23625;48.784;9.336;2023-12-14T05:54:51;6.20;99.90
37786;DHT22;23625;48.784;9.336;2023-12-14T05:57:17;6.20;99.90
37786;DHT22;23625;48.784;9.336;2023-12-14T05:59:43;6.20;99.90
37786;DHT22;23625;48.784;9.336;2023-12-14T06:02:08;6.20;99.90
37786;DHT22;23625;48.784;9.336;2023-12-14T06:04:34;6.20;99.90
37786;DHT22;23625;48.784;9.336;2023-12-14T06:07:00;6.30;99.90
37786;DHT22;23625;48.784;9.336;2023-12-14T06:09:25;6.30;99.90
37786;DHT22;23625;48.784;9.336;2023-12-14T06:12:01;6.30;99.90
37786;DHT22;23625;48.784;9.336;2023-12-14T06:14:27;6.30;99.90
37786;DHT22;23625;48.784;9.336;2023-12-14T06:16:53;6.30;99.90
37786;DHT22;23625;48.784;9.336;2023-12-14T06:19:19;6.40;99.90
37786;DHT22;23625;48.784;9.336;2023-12-14T06:21:44;6.40;99.90
37786;DHT22;23625;48.784;9.336;2023-12-14T06:24:10;6.30;99.90
37786;DHT22;23625;48.784;9.336;2023-12-14T06:26:43;6.40;99.90
37786;DHT22;23625;48.784;9.336;2023-12-14T06:29:10;6.40;99.90
37786;DHT22;23625;48.784;9.336;2023-12-14T06:31:36;6.40;99.90
37786;DHT22;23625;48.784;9.336;2023-12-14T06:34:02;6.40;99.90
37786;DHT22;23625;48.784;9.336;2023-12-14T06:36:30;6.40;99.90
37786;DHT22;23625;48.784;9.336;2023-12-14T06:38:56;6.40;99.90
37786;DHT22;23625;48.784;9.336;2023-12-14T06:41:22;6.40;99.90
37786;DHT22;23625;48.784;9.336;2023-12-14T06:43:48;6.40;99.90
37786;DHT22;23625;48.784;9.336;2023-12-14T06:46:15;6.40;99.90
37786;DHT22;23625;48.784;9.336;2023-12-14T06:48:40;6.50;99.90
37786;DHT22;23625;48.784;9.336;2023-12-14T06:51:06;6.50;99.90
37786;DHT22;23625;48.784;9.336;2023-12-14T06:53:32;6.50;99.90
37786;DHT22;23625;48.784;9.336;2023-12-14T06:55:57;6.50;99.90
37786;DHT22;23625;48.784;9.336;2023-12-14T06:58:23;6.50;99.90
37786;DHT22;23625;48.784;9.336;2023-12-14T07:00:48;6.40;99.90
37786;DHT22;23625;48.784;9.336;2023-12-14T07:03:14;6.40;99.90
37786;DHT22;23625;48.784;9.336;2023-12-14T07:05:39;6.40;99.90
37786;DHT22;23625;48.784;9.336;2023-12-14T07:08:05;6.40;99.90
37786;DHT22;23625;48.784;9.336;2023-12-14T07:10:31;6.40;99.90
37786;DHT22;23625;48.784;9.336;2023-12-14T07:12:56;6.40;99.90
37786;DHT22;23625;48.784;9.336;2023-12-14T07:15:22;6.40;99.90
37786;DHT22;23625;48.784;9.336;2023-12-14T07:17:48;6.40;99.90
37786;DHT22;23625;48.784;9.336;2023-12-14T07:20:13;6.40;99.90
37786;DHT22;23625;48.784;9.336;2023-12-14T07:22:39;6.50;99.90
37786;DHT22;23625;48.784;9.336;2023-12-14T07:25:04;6.50;99.90
37786;DHT22;23625;48.784;9.336;2023-12-14T07:27:30;6.50;99.90
37786;DHT22;23625;48.784;9.336;2023-12-14T07:29:56;6.50;99.90
37786;DHT22;23625;48.784;9.336;2023-12-14T07:32:21;6.50;99.90
37786;DHT22;23625;48.784;9.336;2023-12-14T07:34:47;6.50;99.90
37786;DHT22;23625;48.784;9.336;2023-12-14T07:37:13;6.50;99.90
37786;DHT22;23625;48.784;9.336;2023-12-14T07:39:40;6.50;99.90
37786;DHT22;23625;48.784;9.336;2023-12-14T07:42:05;6.50;99.90
37786;DHT22;23625;48.784;9.336;2023-12-14T07:44:31;6.50;99.90
37786;DHT22;23625;48.784;9.336;2023-12-14T07:46:59;6.50;99.90
37786;DHT22;23625;48.784;9.336;2023-12-14T07:49:25;6.50;99.90
37786;DHT22;23625;48.784;9.336;2023-12-14T07:51:50;6.50;99.90
37786;DHT22;23625;48.784;9.336;2023-12-14T07:54:17;6.50;99.90
37786;DHT22;23625;48.784;9.336;2023-12-14T07:56:42;6.50;99.90
37786;DHT22;23625;48.784;9.336;2023-12-14T07:59:08;6.60;99.90
37786;DHT22;23625;48.784;9.336;2023-12-14T08:01:34;6.60;99.90
37786;DHT22;23625;48.784;9.336;2023-12-14T08:04:00;6.60;99.90
37786;DHT22;23625;48.784;9.336;2023-12-14T08:06:25;6.60;99.90
37786;DHT22;23625;48.784;9.336;2023-12-14T08:08:51;6.60;99.90
37786;DHT22;23625;48.784;9.336;2023-12-14T08:11:16;6.60;99.90
37786;DHT22;23625;48.784;9.336;2023-12-14T08:13:42;6.70;99.90
37786;DHT22;23625;48.784;9.336;2023-12-14T08:16:08;6.70;99.90
37786;DHT22;23625;48.784;9.336;2023-12-14T08:18:33;6.70;99.90
37786;DHT22;23625;48.784;9.336;2023-12-14T08:20:59;6.70;99.90
37786;DHT22;23625;48.784;9.336;2023-12-14T08:23:25;6.70;99.90
37786;DHT22;23625;48.784;9.336;2023-12-14T08:25:53;6.80;99.90
37786;DHT22;23625;48.784;9.336;2023-12-14T08:28:23;6.70;99.90
37786;DHT22;23625;48.784;9.336;2023-12-14T08:30:49;6.80;99.90
37786;DHT22;23625;48.784;9.336;2023-12-14T08:33:14;6.80;99.90
37786;DHT22;23625;48.784;9.336;2023-12-14T08:35:40;6.80;99.90
37786;DHT22;23625;48.784;9.336;2023-12-14T08:38:06;6.80;99.90
37786;DHT22;23625;48.784;9.336;2023-12-14T08:40:32;6.80;99.90
37786;DHT22;23625;48.784;9.336;2023-12-14T08:42:58;6.90;99.90
37786;DHT22;23625;48.784;9.336;2023-12-14T08:45:23;6.90;99.90
37786;DHT22;23625;48.784;9.336;2023-12-14T08:47:49;6.90;99.90
37786;DHT22;23625;48.784;9.336;2023-12-14T08:50:14;6.90;99.90
37786;DHT22;23625;48.784;9.336;2023-12-14T08:52:40;7.00;99.90
37786;DHT22;23625;48.784;9.336;2023-12-14T08:55:06;7.00;99.90
37786;DHT22;23625;48.784;9.336;2023-12-14T08:57:32;7.00;99.90
37786;DHT22;23625;48.784;9.336;2023-12-14T08:59:58;7.00;99.90
37786;DHT22;23625;48.784;9.336;2023-12-14T09:02:23;7.30;99.90
37786;DHT22;23625;48.784;9.336;2023-12-14T09:04:49;7.10;99.90
37786;DHT22;23625;48.784;9.336;2023-12-14T09:07:14;7.10;99.90
37786;DHT22;23625;48.784;9.336;2023-12-14T09:09:40;7.20;99.90
37786;DHT22;23625;48.784;9.336;2023-12-14T09:12:06;7.20;99.90
37786;DHT22;23625;48.784;9.336;2023-12-14T09:14:31;7.30;99.90
37786;DHT22;23625;48.784;9.336;2023-12-14T09:16:57;7.30;99.90
37786;DHT22;23625;48.784;9.336;2023-12-14T09:19:23;7.40;99.90
37786;DHT22;23625;48.784;9.336;2023-12-14T09:21:48;7.40;99.90
37786;DHT22;23625;48.784;9.336;2023-12-14T09:24:14;7.50;99.90
37786;DHT22;23625;48.784;9.336;2023-12-14T09:26:40;7.50;99.90
37786;DHT22;23625;48.784;9.336;2023-12-14T09:29:05;7.50;99.90
37786;DHT22;23625;48.784;9.336;2023-12-14T09:31:31;7.60;99.90
37786;DHT22;23625;48.784;9.336;2023-12-14T09:33:56;7.60;99.90
37786;DHT22;23625;48.784;9.336;2023-12-14T09:36:22;7.60;99.90
37786;DHT22;23625;48.784;9.336;2023-12-14T09:38:47;7.60;99.90
37786;DHT22;23625;48.784;9.336;2023-12-14T09:41:13;7.60;99.90
37786;DHT22;23625;48.784;9.336;2023-12-14T09:43:39;7.60;99.90
37786;DHT22;23625;48.784;9.336;2023-12-14T09:46:05;7.70;99.90
37786;DHT22;23625;48.784;9.336;2023-12-14T09:48:32;7.70;99.90
37786;DHT22;23625;48.784;9.336;2023-12-14T09:50:58;7.80;99.90
37786;DHT22;23625;48.784;9.336;2023-12-14T09:53:24;7.90;99.90
37786;DHT22;23625;48.784;9.336;2023-12-14T09:55:49;7.90;99.90
37786;DHT22;23625;48.784;9.336;2023-12-14T09:58:15;8.00;99.90
37786;DHT22;23625;48.784;9.336;2023-12-14T10:00:41;8.10;99.90
37786;DHT22;23625;48.784;9.336;2023-12-14T10:05:42;8.10;99.90
37786;DHT22;23625;48.784;9.336;2023-12-14T10:08:08;8.10;99.90
37786;DHT22;23625;48.784;9.336;2023-12-14T10:10:33;8.20;99.90
37786;DHT22;23625;48.784;9.336;2023-12-14T10:12:59;8.20;99.90
37786;DHT22;23625;48.784;9.336;2023-12-14T10:15:26;8.30;99.90
37786;DHT22;23625;48.784;9.336;2023-12-14T10:17:55;8.30;99.90
37786;DHT22;23625;48.784;9.336;2023-12-14T10:20:23;8.30;99.90
37786;DHT22;23625;48.784;9.336;2023-12-14T10:22:49;8.40;99.90
37786;DHT22;23625;48.784;9.336;2023-12-14T10:25:15;8.50;99.90
37786;DHT22;23625;48.784;9.336;2023-12-14T10:27:50;8.60;99.90
37786;DHT22;23625;48.784;9.336;2023-12-14T10:30:18;8.50;99.90
37786;DHT22;23625;48.784;9.336;2023-12-14T10:32:49;8.50;99.90
37786;DHT22;23625;48.784;9.336;2023-12-14T10:35:16;8.50;99.90
37786;DHT22;23625;48.784;9.336;2023-12-14T10:37:42;8.60;99.90
37786;DHT22;23625;48.784;9.336;2023-12-14T10:40:09;8.60;99.90
37786;DHT22;23625;48.784;9.336;2023-12-14T10:42:39;8.70;99.90
37786;DHT22;23625;48.784;9.336;2023-12-14T10:45:08;8.80;99.90
37786;DHT22;23625;48.784;9.336;2023-12-14T10:47:35;8.90;99.90
37786;DHT22;23625;48.784;9.336;2023-12-14T10:50:00;8.90;99.90
37786;DHT22;23625;48.784;9.336;2023-12-14T10:52:27;8.80;99.90
37786;DHT22;23625;48.784;9.336;2023-12-14T10:55:02;8.80;99.90
37786;DHT22;23625;48.784;9.336;2023-12-14T10:57:30;8.70;99.90
37786;DHT22;23625;48.784;9.336;2023-12-14T10:59:59;8.70;99.90
37786;DHT22;23625;48.784;9.336;2023-12-14T11:02:25;8.90;99.90
37786;DHT22;23625;48.784;9.336;2023-12-14T11:05:00;8.90;99.90
37786;DHT22;23625;48.784;9.336;2023-12-14T11:10:09;8.70;99.90
37786;DHT22;23625;48.784;9.336;2023-12-14T11:12:37;8.80;99.90
37786;DHT22;23625;48.784;9.336;2023-12-14T11:15:04;8.70;99.90
37786;DHT22;23625;48.784;9.336;2023-12-14T11:17:30;8.60;99.90
37786;DHT22;23625;48.784;9.336;2023-12-14T11:19:55;8.60;99.90
37786;DHT22;23625;48.784;9.336;2023-12-14T11:22:27;8.60;99.90
37786;DHT22;23625;48.784;9.336;2023-12-14T11:24:54;8.50;99.90
37786;DHT22;23625;48.784;9.336;2023-12-14T11:27:28;8.50;99.90
37786;DHT22;23625;48.784;9.336;2023-12-14T11:29:54;8.60;99.90
37786;DHT22;23625;48.784;9.336;2023-12-14T11:32:20;8.60;99.90
37786;DHT22;23625;48.784;9.336;2023-12-14T11:34:46;8.70;99.90
37786;DHT22;23625;48.784;9.336;2023-12-14T11:37:13;8.80;99.90
37786;DHT22;23625;48.784;9.336;2023-12-14T11:39:38;8.70;99.90
37786;DHT22;23625;48.784;9.336;2023-12-14T11:42:05;8.80;99.90
37786;DHT22;23625;48.784;9.336;2023-12-14T11:44:36;8.90;99.90
37786;DHT22;23625;48.784;9.336;2023-12-14T11:47:02;8.80;99.90
37786;DHT22;23625;48.784;9.336;2023-12-14T11:49:27;8.90;99.90
37786;DHT22;23625;48.784;9.336;2023-12-14T11:51:56;8.90;99.90
37786;DHT22;23625;48.784;9.336;2023-12-14T11:54:22;8.90;99.90
37786;DHT22;23625;48.784;9.336;2023-12-14T11:56:48;8.90;99.90
37786;DHT22;23625;48.784;9.336;2023-12-14T11:59:15;8.90;99.90
37786;DHT22;23625;48.784;9.336;2023-12-14T12:01:57;9.00;99.90
37786;DHT22;23625;48.784;9.336;2023-12-14T12:04:24;9.00;99.90
37786;DHT22;23625;48.784;9.336;2023-12-14T12:06:50;9.00;99.90
37786;DHT22;23625;48.784;9.336;2023-12-14T12:09:41;9.00;99.90
37786;DHT22;23625;48.784;9.336;2023-12-14T12:12:11;9.00;99.90
37786;DHT22;23625;48.784;9.336;2023-12-14T12:14:38;9.00;99.90
37786;DHT22;23625;48.784;9.336;2023-12-14T12:17:04;9.00;99.90
37786;DHT22;23625;48.784;9.336;2023-12-14T12:19:39;8.90;99.90
37786;DHT22;23625;48.784;9.336;2023-12-14T12:22:08;8.90;99.90
37786;DHT22;23625;48.784;9.336;2023-12-14T12:24:34;8.80;99.90
37786;DHT22;23625;48.784;9.336;2023-12-14T12:26:59;8.80;99.90
37786;DHT22;23625;48.784;9.336;2023-12-14T12:29:25;8.70;99.90
37786;DHT22;23625;48.784;9.336;2023-12-14T12:31:50;8.70;99.90
37786;DHT22;23625;48.784;9.336;2023-12-14T12:34:17;8.90;99.90
37786;DHT22;23625;48.784;9.336;2023-12-14T12:36:43;8.90;99.90
37786;DHT22;23625;48.784;9.336;2023-12-14T12:39:09;8.70;99.90
37786;DHT22;23625;48.784;9.336;2023-12-14T12:41:35;8.80;99.90
37786;DHT22;23625;48.784;9.336;2023-12-14T12:44:03;8.80;99.90
37786;DHT22;23625;48.784;9.336;2023-12-14T12:46:36;8.60;99.90
37786;DHT22;23625;48.784;9.336;2023-12-14T12:49:04;8.60;99.90
37786;DHT22;23625;48.784;9.336;2023-12-14T12:51:30;8.60;99.90
37786;DHT22;23625;48.784;9.336;2023-12-14T12:53:59;8.60;99.90
37786;DHT22;23625;48.784;9.336;2023-12-14T12:56:26;8.50;99.90
37786;DHT22;23625;48.784;9.336;2023-12-14T12:58:53;8.60;99.90
37786;DHT22;23625;48.784;9.336;2023-12-14T13:01:22;8.70;99.90
37786;DHT22;23625;48.784;9.336;2023-12-14T13:03:53;8.60;99.90
37786;DHT22;23625;48.784;9.336;2023-12-14T13:06:18;8.70;99.90
37786;DHT22;23625;48.784;9.336;2023-12-14T13:08:44;8.70;99.90
37786;DHT22;23625;48.784;9.336;2023-12-14T13:11:09;8.70;99.90
37786;DHT22;23625;48.784;9.336;2023-12-14T13:13:35;8.70;99.90
37786;DHT22;23625;48.784;9.336;2023-12-14T13:16:01;8.70;99.90
37786;DHT22;23625;48.784;9.336;2023-12-14T13:18:26;8.80;99.90
37786;DHT22;23625;48.784;9.336;2023-12-14T13:20:52;8.70;99.90
37786;DHT22;23625;48.784;9.336;2023-12-14T13:23:17;8.70;99.90
37786;DHT22;23625;48.784;9.336;2023-12-14T13:25:43;8.70;99.90
37786;DHT22;23625;48.784;9.336;2023-12-14T13:28:10;8.70;99.90
37786;DHT22;23625;48.784;9.336;2023-12-14T13:30:36;8.60;99.90
37786;DHT22;23625;48.784;9.336;2023-12-14T13:33:01;8.70;99.90
37786;DHT22;23625;48.784;9.336;2023-12-14T13:35:29;8.60;99.90
37786;DHT22;23625;48.784;9.336;2023-12-14T13:37:55;8.50;99.90
37786;DHT22;23625;48.784;9.336;2023-12-14T13:40:20;8.40;99.90
37786;DHT22;23625;48.784;9.336;2023-12-14T13:42:46;8.30;99.90
37786;DHT22;23625;48.784;9.336;2023-12-14T13:45:12;8.20;99.90
37786;DHT22;23625;48.784;9.336;2023-12-14T13:47:37;8.10;99.90
37786;DHT22;23625;48.784;9.336;2023-12-14T13:50:03;8.20;99.90
37786;DHT22;23625;48.784;9.336;2023-12-14T13:52:30;8.10;99.90
37786;DHT22;23625;48.784;9.336;2023-12-14T13:54:55;8.00;99.90
37786;DHT22;23625;48.784;9.336;2023-12-14T13:57:22;7.90;99.90
37786;DHT22;23625;48.784;9.336;2023-12-14T13:59:47;7.90;99.90
37786;DHT22;23625;48.784;9.336;2023-12-14T14:02:13;7.90;99.90
37786;DHT22;23625;48.784;9.336;2023-12-14T14:04:39;7.90;99.90
37786;DHT22;23625;48.784;9.336;2023-12-14T14:07:04;7.80;99.90
37786;DHT22;23625;48.784;9.336;2023-12-14T14:09:30;7.90;99.90
37786;DHT22;23625;48.784;9.336;2023-12-14T14:11:56;7.90;99.90
37786;DHT22;23625;48.784;9.336;2023-12-14T14:14:21;7.90;99.90
37786;DHT22;23625;48.784;9.336;2023-12-14T14:16:48;7.80;99.90
37786;DHT22;23625;48.784;9.336;2023-12-14T14:19:14;7.80;99.90
37786;DHT22;23625;48.784;9.336;2023-12-14T14:21:40;7.80;99.90
37786;DHT22;23625;48.784;9.336;2023-12-14T14:24:06;7.70;99.90
37786;DHT22;23625;48.784;9.336;2023-12-14T14:26:31;7.70;99.90
37786;DHT22;23625;48.784;9.336;2023-12-14T14:28:57;7.70;99.90
37786;DHT22;23625;48.784;9.336;2023-12-14T14:31:30;7.70;99.90
37786;DHT22;23625;48.784;9.336;2023-12-14T14:33:58;7.70;99.90
37786;DHT22;23625;48.784;9.336;2023-12-14T14:36:25;7.70;99.90
37786;DHT22;23625;48.784;9.336;2023-12-14T14:38:51;7.70;99.90
37786;DHT22;23625;48.784;9.336;2023-12-14T14:41:19;7.70;99.90
37786;DHT22;23625;48.784;9.336;2023-12-14T14:43:45;7.70;99.90
37786;DHT22;23625;48.784;9.336;2023-12-14T14:46:10;7.70;99.90
37786;DHT22;23625;48.784;9.336;2023-12-14T14:48:36;7.60;99.90
37786;DHT22;23625;48.784;9.336;2023-12-14T14:51:03;7.70;99.90
37786;DHT22;23625;48.784;9.336;2023-12-14T14:53:29;7.60;99.90
37786;DHT22;23625;48.784;9.336;2023-12-14T14:55:55;7.60;99.90
37786;DHT22;23625;48.784;9.336;2023-12-14T14:58:21;7.60;99.90
37786;DHT22;23625;48.784;9.336;2023-12-14T15:00:47;7.60;99.90
37786;DHT22;23625;48.784;9.336;2023-12-14T15:03:13;7.60;99.90
37786;DHT22;23625;48.784;9.336;2023-12-14T15:05:39;7.60;99.90
37786;DHT22;23625;48.784;9.336;2023-12-14T15:08:05;7.60;99.90
37786;DHT22;23625;48.784;9.336;2023-12-14T15:10:34;7.60;99.90
37786;DHT22;23625;48.784;9.336;2023-12-14T15:13:00;7.60;99.90
37786;DHT22;23625;48.784;9.336;2023-12-14T15:15:25;7.60;99.90
37786;DHT22;23625;48.784;9.336;2023-12-14T15:17:51;7.60;99.90
37786;DHT22;23625;48.784;9.336;2023-12-14T15:20:17;7.60;99.90
37786;DHT22;23625;48.784;9.336;2023-12-14T15:22:43;7.60;99.90
37786;DHT22;23625;48.784;9.336;2023-12-14T15:25:09;7.60;99.90
37786;DHT22;23625;48.784;9.336;2023-12-14T15:27:34;7.60;99.90
37786;DHT22;23625;48.784;9.336;2023-12-14T15:30:00;7.60;99.90
37786;DHT22;23625;48.784;9.336;2023-12-14T15:32:26;7.60;99.90
37786;DHT22;23625;48.784;9.336;2023-12-14T15:34:51;7.60;99.90
37786;DHT22;23625;48.784;9.336;2023-12-14T15:37:17;7.60;99.90
37786;DHT22;23625;48.784;9.336;2023-12-14T15:39:43;7.60;99.90
37786;DHT22;23625;48.784;9.336;2023-12-14T15:42:15;7.60;99.90
37786;DHT22;23625;48.784;9.336;2023-12-14T15:44:41;7.60;99.90